sensor_id;sensor_type;location;lat;lon;timestamp;temperature;humidity
50548;DHT22;38013;48.810;8.818;2022-10-16T00:01:26;17.80;78.30
50548;DHT22;38013;48.810;8.818;2022-10-16T00:03:54;17.80;78.20
50548;DHT22;38013;48.810;8.818;2022-10-16T00:06:22;17.80;78.20
50548;DHT22;38013;48.810;8.818;2022-10-16T00:08:49;17.80;78.20
50548;DHT22;38013;48.810;8.818;2022-10-16T00:11:21;17.80;78.30
50548;DHT22;38013;48.810;8.818;2022-10-16T00:13:49;17.80;78.30
50548;DHT22;38013;48.810;8.818;2022-10-16T00:16:16;17.80;78.20
50548;DHT22;38013;48.810;8.818;2022-10-16T00:18:42;17.80;78.20
50548;DHT22;38013;48.810;8.818;2022-10-16T00:21:17;17.80;78.10
50548;DHT22;38013;48.810;8.818;2022-10-16T00:23:45;17.80;78.20
50548;DHT22;38013;48.810;8.818;2022-10-16T00:26:14;17.80;78.10
50548;DHT22;38013;48.810;8.818;2022-10-16T00:28:46;17.80;78.10
50548;DHT22;38013;48.810;8.818;2022-10-16T00:31:13;17.80;78.20
50548;DHT22;38013;48.810;8.818;2022-10-16T00:33:39;17.80;78.20
50548;DHT22;38013;48.810;8.818;2022-10-16T00:36:07;17.80;78.30
50548;DHT22;38013;48.810;8.818;2022-10-16T00:38:34;17.80;78.30
50548;DHT22;38013;48.810;8.818;2022-10-16T00:41:00;17.80;78.30
50548;DHT22;38013;48.810;8.818;2022-10-16T00:43:48;17.80;78.40
50548;DHT22;38013;48.810;8.818;2022-10-16T00:49:02;17.80;78.40
50548;DHT22;38013;48.810;8.818;2022-10-16T00:51:35;17.80;78.40
50548;DHT22;38013;48.810;8.818;2022-10-16T00:54:10;17.90;79.00
50548;DHT22;38013;48.810;8.818;2022-10-16T00:56:39;17.90;78.40
50548;DHT22;38013;48.810;8.818;2022-10-16T01:02:07;17.90;78.40
50548;DHT22;38013;48.810;8.818;2022-10-16T01:04:39;18.00;78.30
50548;DHT22;38013;48.810;8.818;2022-10-16T01:10:41;18.00;78.30
50548;DHT22;38013;48.810;8.818;2022-10-16T01:13:40;18.00;78.20
50548;DHT22;38013;48.810;8.818;2022-10-16T01:16:15;18.10;78.10
50548;DHT22;38013;48.810;8.818;2022-10-16T01:19:26;18.10;78.00
50548;DHT22;38013;48.810;8.818;2022-10-16T01:22:08;18.10;77.90
50548;DHT22;38013;48.810;8.818;2022-10-16T01:24:49;18.10;77.80
50548;DHT22;38013;48.810;8.818;2022-10-16T01:29:48;18.10;77.80
50548;DHT22;38013;48.810;8.818;2022-10-16T01:32:38;18.10;77.70
50548;DHT22;38013;48.810;8.818;2022-10-16T01:35:35;18.30;77.70
50548;DHT22;38013;48.810;8.818;2022-10-16T01:38:10;18.30;77.60
50548;DHT22;38013;48.810;8.818;2022-10-16T01:40:42;18.30;77.50
50548;DHT22;38013;48.810;8.818;2022-10-16T01:43:17;18.30;77.40
50548;DHT22;38013;48.810;8.818;2022-10-16T01:45:45;18.30;77.20
50548;DHT22;38013;48.810;8.818;2022-10-16T01:48:17;18.40;77.20
50548;DHT22;38013;48.810;8.818;2022-10-16T01:50:52;18.40;77.10
50548;DHT22;38013;48.810;8.818;2022-10-16T01:53:22;18.40;77.20
50548;DHT22;38013;48.810;8.818;2022-10-16T01:55:50;18.40;77.10
50548;DHT22;38013;48.810;8.818;2022-10-16T01:58:17;18.40;77.00
50548;DHT22;38013;48.810;8.818;2022-10-16T02:00:46;18.40;76.90
50548;DHT22;38013;48.810;8.818;2022-10-16T02:03:14;18.40;76.90
50548;DHT22;38013;48.810;8.818;2022-10-16T02:05:45;18.40;77.00
50548;DHT22;38013;48.810;8.818;2022-10-16T02:08:16;18.40;76.90
50548;DHT22;38013;48.810;8.818;2022-10-16T02:10:42;18.40;76.90
50548;DHT22;38013;48.810;8.818;2022-10-16T02:13:16;18.40;76.90
50548;DHT22;38013;48.810;8.818;2022-10-16T02:15:44;18.40;76.80
50548;DHT22;38013;48.810;8.818;2022-10-16T02:18:10;18.40;76.70
50548;DHT22;38013;48.810;8.818;2022-10-16T02:20:51;18.40;76.70
50548;DHT22;38013;48.810;8.818;2022-10-16T02:23:35;18.40;76.60
50548;DHT22;38013;48.810;8.818;2022-10-16T02:26:09;18.40;76.50
50548;DHT22;38013;48.810;8.818;2022-10-16T02:28:48;18.40;76.50
50548;DHT22;38013;48.810;8.818;2022-10-16T02:31:23;18.30;76.40
50548;DHT22;38013;48.810;8.818;2022-10-16T02:33:53;18.30;76.40
50548;DHT22;38013;48.810;8.818;2022-10-16T02:36:20;18.30;76.50
50548;DHT22;38013;48.810;8.818;2022-10-16T02:38:47;18.30;76.50
50548;DHT22;38013;48.810;8.818;2022-10-16T02:41:13;18.30;76.50
50548;DHT22;38013;48.810;8.818;2022-10-16T02:43:39;18.30;76.60
50548;DHT22;38013;48.810;8.818;2022-10-16T02:46:05;18.20;76.50
50548;DHT22;38013;48.810;8.818;2022-10-16T02:48:31;18.20;76.50
50548;DHT22;38013;48.810;8.818;2022-10-16T02:50:57;18.20;76.60
50548;DHT22;38013;48.810;8.818;2022-10-16T02:53:23;18.20;76.60
50548;DHT22;38013;48.810;8.818;2022-10-16T02:55:48;18.20;76.60
50548;DHT22;38013;48.810;8.818;2022-10-16T02:58:14;18.20;76.60
50548;DHT22;38013;48.810;8.818;2022-10-16T03:00:40;18.10;76.60
50548;DHT22;38013;48.810;8.818;2022-10-16T03:03:06;18.10;76.60
50548;DHT22;38013;48.810;8.818;2022-10-16T03:05:31;18.10;76.60
50548;DHT22;38013;48.810;8.818;2022-10-16T03:07:57;18.10;76.70
50548;DHT22;38013;48.810;8.818;2022-10-16T03:10:25;18.00;76.70
50548;DHT22;38013;48.810;8.818;2022-10-16T03:12:51;18.00;76.70
50548;DHT22;38013;48.810;8.818;2022-10-16T03:15:17;18.00;76.80
50548;DHT22;38013;48.810;8.818;2022-10-16T03:17:42;18.00;76.90
50548;DHT22;38013;48.810;8.818;2022-10-16T03:20:08;18.00;77.00
50548;DHT22;38013;48.810;8.818;2022-10-16T03:22:34;17.90;76.90
50548;DHT22;38013;48.810;8.818;2022-10-16T03:25:00;17.90;77.00
50548;DHT22;38013;48.810;8.818;2022-10-16T03:27:26;17.90;77.10
50548;DHT22;38013;48.810;8.818;2022-10-16T03:29:52;17.90;77.20
50548;DHT22;38013;48.810;8.818;2022-10-16T03:32:18;17.90;77.20
50548;DHT22;38013;48.810;8.818;2022-10-16T03:34:45;17.80;77.30
50548;DHT22;38013;48.810;8.818;2022-10-16T03:37:11;17.80;77.30
50548;DHT22;38013;48.810;8.818;2022-10-16T03:39:37;17.80;77.40
50548;DHT22;38013;48.810;8.818;2022-10-16T03:42:04;17.70;77.50
50548;DHT22;38013;48.810;8.818;2022-10-16T03:44:30;17.70;77.60
50548;DHT22;38013;48.810;8.818;2022-10-16T03:46:55;17.60;77.60
50548;DHT22;38013;48.810;8.818;2022-10-16T03:49:21;17.60;77.70
50548;DHT22;38013;48.810;8.818;2022-10-16T03:51:47;17.60;77.80
50548;DHT22;38013;48.810;8.818;2022-10-16T03:54:13;17.60;77.80
50548;DHT22;38013;48.810;8.818;2022-10-16T03:56:38;17.60;77.90
50548;DHT22;38013;48.810;8.818;2022-10-16T03:59:04;17.50;77.90
50548;DHT22;38013;48.810;8.818;2022-10-16T04:01:30;17.50;78.00
50548;DHT22;38013;48.810;8.818;2022-10-16T04:03:56;17.50;78.00
50548;DHT22;38013;48.810;8.818;2022-10-16T04:06:22;17.40;78.00
50548;DHT22;38013;48.810;8.818;2022-10-16T04:08:47;17.50;78.10
50548;DHT22;38013;48.810;8.818;2022-10-16T04:11:13;17.40;78.10
50548;DHT22;38013;48.810;8.818;2022-10-16T04:13:39;17.50;78.20
50548;DHT22;38013;48.810;8.818;2022-10-16T04:16:05;17.40;78.10
50548;DHT22;38013;48.810;8.818;2022-10-16T04:18:30;17.40;78.10
50548;DHT22;38013;48.810;8.818;2022-10-16T04:20:56;17.40;78.20
50548;DHT22;38013;48.810;8.818;2022-10-16T04:23:22;17.40;78.20
50548;DHT22;38013;48.810;8.818;2022-10-16T04:25:48;17.40;78.20
50548;DHT22;38013;48.810;8.818;2022-10-16T04:28:14;17.40;78.20
50548;DHT22;38013;48.810;8.818;2022-10-16T04:30:40;17.40;78.30
50548;DHT22;38013;48.810;8.818;2022-10-16T04:33:07;17.40;78.30
50548;DHT22;38013;48.810;8.818;2022-10-16T04:35:34;17.40;78.40
50548;DHT22;38013;48.810;8.818;2022-10-16T04:38:00;17.40;78.40
50548;DHT22;38013;48.810;8.818;2022-10-16T04:40:26;17.40;78.40
50548;DHT22;38013;48.810;8.818;2022-10-16T04:42:51;17.40;78.30
50548;DHT22;38013;48.810;8.818;2022-10-16T04:45:17;17.30;78.20
50548;DHT22;38013;48.810;8.818;2022-10-16T04:47:43;17.30;78.30
50548;DHT22;38013;48.810;8.818;2022-10-16T04:50:09;17.40;78.40
50548;DHT22;38013;48.810;8.818;2022-10-16T04:52:35;17.40;78.40
50548;DHT22;38013;48.810;8.818;2022-10-16T04:55:01;17.30;78.30
50548;DHT22;38013;48.810;8.818;2022-10-16T04:57:29;17.30;78.30
50548;DHT22;38013;48.810;8.818;2022-10-16T04:59:55;17.30;78.30
50548;DHT22;38013;48.810;8.818;2022-10-16T05:02:21;17.30;78.20
50548;DHT22;38013;48.810;8.818;2022-10-16T05:04:47;17.40;78.30
50548;DHT22;38013;48.810;8.818;2022-10-16T05:07:13;17.30;78.20
50548;DHT22;38013;48.810;8.818;2022-10-16T05:09:38;17.30;78.30
50548;DHT22;38013;48.810;8.818;2022-10-16T05:12:04;17.30;78.30
50548;DHT22;38013;48.810;8.818;2022-10-16T05:14:30;17.30;78.30
50548;DHT22;38013;48.810;8.818;2022-10-16T05:16:56;17.30;78.20
50548;DHT22;38013;48.810;8.818;2022-10-16T05:19:22;17.30;78.10
50548;DHT22;38013;48.810;8.818;2022-10-16T05:21:48;17.30;78.10
50548;DHT22;38013;48.810;8.818;2022-10-16T05:24:14;17.30;78.00
50548;DHT22;38013;48.810;8.818;2022-10-16T05:26:39;17.30;78.00
50548;DHT22;38013;48.810;8.818;2022-10-16T05:29:05;17.30;78.00
50548;DHT22;38013;48.810;8.818;2022-10-16T05:31:31;17.30;78.00
50548;DHT22;38013;48.810;8.818;2022-10-16T05:34:00;17.20;78.10
50548;DHT22;38013;48.810;8.818;2022-10-16T05:36:26;17.20;78.20
50548;DHT22;38013;48.810;8.818;2022-10-16T05:38:52;17.20;78.20
50548;DHT22;38013;48.810;8.818;2022-10-16T05:41:19;17.20;78.30
50548;DHT22;38013;48.810;8.818;2022-10-16T05:43:47;17.20;78.30
50548;DHT22;38013;48.810;8.818;2022-10-16T05:46:14;17.10;78.20
50548;DHT22;38013;48.810;8.818;2022-10-16T05:48:40;17.20;78.30
50548;DHT22;38013;48.810;8.818;2022-10-16T05:51:09;17.10;78.40
50548;DHT22;38013;48.810;8.818;2022-10-16T05:53:38;17.10;78.40
50548;DHT22;38013;48.810;8.818;2022-10-16T05:56:05;17.10;78.40
50548;DHT22;38013;48.810;8.818;2022-10-16T05:58:35;17.10;78.40
50548;DHT22;38013;48.810;8.818;2022-10-16T06:01:05;17.10;78.50
50548;DHT22;38013;48.810;8.818;2022-10-16T06:03:41;17.10;78.50
50548;DHT22;38013;48.810;8.818;2022-10-16T06:06:15;17.10;78.50
50548;DHT22;38013;48.810;8.818;2022-10-16T06:08:44;17.10;78.70
50548;DHT22;38013;48.810;8.818;2022-10-16T06:11:15;17.10;78.60
50548;DHT22;38013;48.810;8.818;2022-10-16T06:13:42;17.10;78.70
50548;DHT22;38013;48.810;8.818;2022-10-16T06:16:09;17.10;78.70
50548;DHT22;38013;48.810;8.818;2022-10-16T06:18:35;17.10;78.80
50548;DHT22;38013;48.810;8.818;2022-10-16T06:21:11;17.10;78.80
50548;DHT22;38013;48.810;8.818;2022-10-16T06:23:42;17.10;78.90
50548;DHT22;38013;48.810;8.818;2022-10-16T06:26:10;17.10;78.80
50548;DHT22;38013;48.810;8.818;2022-10-16T06:28:37;17.10;78.90
50548;DHT22;38013;48.810;8.818;2022-10-16T06:31:04;17.10;78.90
50548;DHT22;38013;48.810;8.818;2022-10-16T06:33:30;17.10;78.90
50548;DHT22;38013;48.810;8.818;2022-10-16T06:36:03;17.10;78.90
50548;DHT22;38013;48.810;8.818;2022-10-16T06:38:40;17.10;79.10
50548;DHT22;38013;48.810;8.818;2022-10-16T06:41:07;17.10;79.00
50548;DHT22;38013;48.810;8.818;2022-10-16T06:43:33;17.20;79.10
50548;DHT22;38013;48.810;8.818;2022-10-16T06:46:03;17.10;79.10
50548;DHT22;38013;48.810;8.818;2022-10-16T06:48:31;17.10;79.10
50548;DHT22;38013;48.810;8.818;2022-10-16T06:51:08;17.20;79.20
50548;DHT22;38013;48.810;8.818;2022-10-16T06:53:41;17.20;79.30
50548;DHT22;38013;48.810;8.818;2022-10-16T06:56:12;17.20;79.30
50548;DHT22;38013;48.810;8.818;2022-10-16T06:58:39;17.30;79.30
50548;DHT22;38013;48.810;8.818;2022-10-16T07:01:06;17.30;79.40
50548;DHT22;38013;48.810;8.818;2022-10-16T07:03:35;17.30;79.50
50548;DHT22;38013;48.810;8.818;2022-10-16T07:06:03;17.30;79.50
50548;DHT22;38013;48.810;8.818;2022-10-16T07:08:34;17.40;79.50
50548;DHT22;38013;48.810;8.818;2022-10-16T07:11:05;17.40;79.60
50548;DHT22;38013;48.810;8.818;2022-10-16T07:13:37;17.40;79.50
50548;DHT22;38013;48.810;8.818;2022-10-16T07:16:17;17.50;79.50
50548;DHT22;38013;48.810;8.818;2022-10-16T07:18:45;17.50;79.70
50548;DHT22;38013;48.810;8.818;2022-10-16T07:21:17;17.50;79.50
50548;DHT22;38013;48.810;8.818;2022-10-16T07:23:44;17.50;79.50
50548;DHT22;38013;48.810;8.818;2022-10-16T07:26:10;17.60;79.50
50548;DHT22;38013;48.810;8.818;2022-10-16T07:28:37;17.60;79.40
50548;DHT22;38013;48.810;8.818;2022-10-16T07:31:09;17.60;79.40
50548;DHT22;38013;48.810;8.818;2022-10-16T07:33:37;17.70;79.30
50548;DHT22;38013;48.810;8.818;2022-10-16T07:36:04;17.70;79.10
50548;DHT22;38013;48.810;8.818;2022-10-16T07:38:31;17.80;79.10
50548;DHT22;38013;48.810;8.818;2022-10-16T07:41:03;17.80;79.10
50548;DHT22;38013;48.810;8.818;2022-10-16T07:43:31;17.80;79.10
50548;DHT22;38013;48.810;8.818;2022-10-16T07:45:57;17.90;79.10
50548;DHT22;38013;48.810;8.818;2022-10-16T07:48:24;17.90;79.10
50548;DHT22;38013;48.810;8.818;2022-10-16T07:50:56;18.00;79.20
50548;DHT22;38013;48.810;8.818;2022-10-16T07:53:22;18.00;79.10
50548;DHT22;38013;48.810;8.818;2022-10-16T07:55:48;18.10;79.10
50548;DHT22;38013;48.810;8.818;2022-10-16T07:58:14;18.20;79.00
50548;DHT22;38013;48.810;8.818;2022-10-16T08:00:40;18.20;78.90
50548;DHT22;38013;48.810;8.818;2022-10-16T08:03:05;18.30;78.80
50548;DHT22;38013;48.810;8.818;2022-10-16T08:05:32;18.40;79.00
50548;DHT22;38013;48.810;8.818;2022-10-16T08:07:58;18.50;78.90
50548;DHT22;38013;48.810;8.818;2022-10-16T08:10:26;18.60;79.00
50548;DHT22;38013;48.810;8.818;2022-10-16T08:12:53;18.70;78.80
50548;DHT22;38013;48.810;8.818;2022-10-16T08:15:20;18.80;78.70
50548;DHT22;38013;48.810;8.818;2022-10-16T08:18:00;18.90;78.50
50548;DHT22;38013;48.810;8.818;2022-10-16T08:20:28;18.90;77.70
50548;DHT22;38013;48.810;8.818;2022-10-16T08:22:55;19.10;77.80
50548;DHT22;38013;48.810;8.818;2022-10-16T08:25:24;19.10;77.50
50548;DHT22;38013;48.810;8.818;2022-10-16T08:27:50;19.20;77.10
50548;DHT22;38013;48.810;8.818;2022-10-16T08:30:17;19.40;77.30
50548;DHT22;38013;48.810;8.818;2022-10-16T08:32:43;19.40;77.10
50548;DHT22;38013;48.810;8.818;2022-10-16T08:35:10;19.50;76.90
50548;DHT22;38013;48.810;8.818;2022-10-16T08:37:37;19.60;76.70
50548;DHT22;38013;48.810;8.818;2022-10-16T08:40:05;19.60;76.50
50548;DHT22;38013;48.810;8.818;2022-10-16T08:42:53;19.70;76.30
50548;DHT22;38013;48.810;8.818;2022-10-16T08:45:49;19.70;75.70
50548;DHT22;38013;48.810;8.818;2022-10-16T08:48:48;19.80;75.40
50548;DHT22;38013;48.810;8.818;2022-10-16T08:51:29;19.90;75.40
50548;DHT22;38013;48.810;8.818;2022-10-16T08:53:57;19.90;74.90
50548;DHT22;38013;48.810;8.818;2022-10-16T08:56:25;19.90;75.00
50548;DHT22;38013;48.810;8.818;2022-10-16T08:58:52;20.00;74.80
50548;DHT22;38013;48.810;8.818;2022-10-16T09:01:21;20.00;74.80
50548;DHT22;38013;48.810;8.818;2022-10-16T09:06:54;20.10;74.40
50548;DHT22;38013;48.810;8.818;2022-10-16T09:12:21;20.20;73.60
50548;DHT22;38013;48.810;8.818;2022-10-16T09:18:23;20.40;73.00
50548;DHT22;38013;48.810;8.818;2022-10-16T09:21:00;20.40;72.80
50548;DHT22;38013;48.810;8.818;2022-10-16T09:23:32;20.50;72.70
50548;DHT22;38013;48.810;8.818;2022-10-16T09:26:00;20.50;72.70
50548;DHT22;38013;48.810;8.818;2022-10-16T09:28:26;20.60;72.50
50548;DHT22;38013;48.810;8.818;2022-10-16T09:30:52;20.60;72.30
50548;DHT22;38013;48.810;8.818;2022-10-16T09:33:21;20.60;72.40
50548;DHT22;38013;48.810;8.818;2022-10-16T09:35:51;20.70;72.10
50548;DHT22;38013;48.810;8.818;2022-10-16T09:38:25;20.70;71.80
50548;DHT22;38013;48.810;8.818;2022-10-16T09:41:23;20.80;71.90
50548;DHT22;38013;48.810;8.818;2022-10-16T09:43:49;20.90;71.50
50548;DHT22;38013;48.810;8.818;2022-10-16T09:46:35;21.00;71.80
50548;DHT22;38013;48.810;8.818;2022-10-16T09:49:04;21.10;71.20
50548;DHT22;38013;48.810;8.818;2022-10-16T09:51:36;21.20;71.60
50548;DHT22;38013;48.810;8.818;2022-10-16T09:54:15;21.40;72.00
50548;DHT22;38013;48.810;8.818;2022-10-16T09:56:42;21.50;70.90
50548;DHT22;38013;48.810;8.818;2022-10-16T09:59:15;21.70;71.30
50548;DHT22;38013;48.810;8.818;2022-10-16T10:01:50;21.80;70.10
50548;DHT22;38013;48.810;8.818;2022-10-16T10:04:18;22.00;70.20
50548;DHT22;38013;48.810;8.818;2022-10-16T10:06:57;22.10;70.00
50548;DHT22;38013;48.810;8.818;2022-10-16T10:09:37;22.20;69.10
50548;DHT22;38013;48.810;8.818;2022-10-16T10:12:05;22.30;69.00
50548;DHT22;38013;48.810;8.818;2022-10-16T10:14:37;22.40;68.50
50548;DHT22;38013;48.810;8.818;2022-10-16T10:17:18;22.40;68.10
50548;DHT22;38013;48.810;8.818;2022-10-16T10:19:51;22.50;68.00
50548;DHT22;38013;48.810;8.818;2022-10-16T10:22:32;22.50;67.80
50548;DHT22;38013;48.810;8.818;2022-10-16T10:36:40;22.80;67.70
50548;DHT22;38013;48.810;8.818;2022-10-16T10:39:23;22.90;68.80
50548;DHT22;38013;48.810;8.818;2022-10-16T10:42:22;23.00;67.00
50548;DHT22;38013;48.810;8.818;2022-10-16T10:51:20;23.60;67.30
50548;DHT22;38013;48.810;8.818;2022-10-16T10:54:17;23.80;66.60
50548;DHT22;38013;48.810;8.818;2022-10-16T11:05:39;24.70;64.60
50548;DHT22;38013;48.810;8.818;2022-10-16T11:08:23;24.90;64.70
50548;DHT22;38013;48.810;8.818;2022-10-16T11:11:20;25.10;63.90
50548;DHT22;38013;48.810;8.818;2022-10-16T11:14:03;25.20;63.00
50548;DHT22;38013;48.810;8.818;2022-10-16T11:16:39;25.30;62.50
50548;DHT22;38013;48.810;8.818;2022-10-16T11:19:13;25.50;62.70
50548;DHT22;38013;48.810;8.818;2022-10-16T11:22:09;25.60;62.30
50548;DHT22;38013;48.810;8.818;2022-10-16T11:25:13;25.70;61.40
50548;DHT22;38013;48.810;8.818;2022-10-16T11:28:11;25.70;61.40
50548;DHT22;38013;48.810;8.818;2022-10-16T11:30:51;25.80;60.80
50548;DHT22;38013;48.810;8.818;2022-10-16T11:33:23;25.90;61.40
50548;DHT22;38013;48.810;8.818;2022-10-16T11:36:23;26.00;61.70
50548;DHT22;38013;48.810;8.818;2022-10-16T11:44:24;26.10;60.10
50548;DHT22;38013;48.810;8.818;2022-10-16T11:50:09;26.20;58.40
50548;DHT22;38013;48.810;8.818;2022-10-16T11:52:44;26.20;58.80
50548;DHT22;38013;48.810;8.818;2022-10-16T11:55:20;26.10;58.40
50548;DHT22;38013;48.810;8.818;2022-10-16T11:57:57;26.10;59.20
50548;DHT22;38013;48.810;8.818;2022-10-16T12:00:34;26.20;58.90
50548;DHT22;38013;48.810;8.818;2022-10-16T12:08:35;26.20;59.00
50548;DHT22;38013;48.810;8.818;2022-10-16T12:16:38;26.30;60.60
50548;DHT22;38013;48.810;8.818;2022-10-16T12:19:13;26.40;61.50
50548;DHT22;38013;48.810;8.818;2022-10-16T12:21:41;26.60;60.80
50548;DHT22;38013;48.810;8.818;2022-10-16T12:24:32;26.80;61.10
50548;DHT22;38013;48.810;8.818;2022-10-16T12:27:00;27.00;59.40
50548;DHT22;38013;48.810;8.818;2022-10-16T12:32:18;27.60;59.90
50548;DHT22;38013;48.810;8.818;2022-10-16T12:34:52;27.80;58.50
50548;DHT22;38013;48.810;8.818;2022-10-16T12:37:24;28.00;57.90
50548;DHT22;38013;48.810;8.818;2022-10-16T12:39:53;28.10;55.30
50548;DHT22;38013;48.810;8.818;2022-10-16T12:42:30;28.00;56.10
50548;DHT22;38013;48.810;8.818;2022-10-16T12:44:58;28.00;56.70
50548;DHT22;38013;48.810;8.818;2022-10-16T12:49:56;27.90;56.70
50548;DHT22;38013;48.810;8.818;2022-10-16T12:54:59;28.10;57.30
50548;DHT22;38013;48.810;8.818;2022-10-16T12:58:00;28.20;57.10
50548;DHT22;38013;48.810;8.818;2022-10-16T13:00:43;28.20;56.60
50548;DHT22;38013;48.810;8.818;2022-10-16T13:03:48;28.40;56.60
50548;DHT22;38013;48.810;8.818;2022-10-16T13:09:16;28.60;56.20
50548;DHT22;38013;48.810;8.818;2022-10-16T13:15:00;28.60;55.10
50548;DHT22;38013;48.810;8.818;2022-10-16T13:23:30;28.10;54.70
50548;DHT22;38013;48.810;8.818;2022-10-16T13:29:04;27.80;56.00
50548;DHT22;38013;48.810;8.818;2022-10-16T13:31:30;27.80;56.90
50548;DHT22;38013;48.810;8.818;2022-10-16T13:33:59;28.00;56.60
50548;DHT22;38013;48.810;8.818;2022-10-16T13:36:30;28.10;56.30
50548;DHT22;38013;48.810;8.818;2022-10-16T13:39:23;28.30;56.20
50548;DHT22;38013;48.810;8.818;2022-10-16T13:42:15;28.50;55.70
50548;DHT22;38013;48.810;8.818;2022-10-16T13:44:53;28.50;54.00
50548;DHT22;38013;48.810;8.818;2022-10-16T13:47:25;28.50;54.10
50548;DHT22;38013;48.810;8.818;2022-10-16T13:50:11;28.40;53.70
50548;DHT22;38013;48.810;8.818;2022-10-16T13:52:38;28.30;54.50
50548;DHT22;38013;48.810;8.818;2022-10-16T13:55:16;28.10;55.10
50548;DHT22;38013;48.810;8.818;2022-10-16T13:57:44;28.00;54.60
50548;DHT22;38013;48.810;8.818;2022-10-16T14:00:25;27.80;55.30
50548;DHT22;38013;48.810;8.818;2022-10-16T14:03:03;27.80;55.10
50548;DHT22;38013;48.810;8.818;2022-10-16T14:05:31;27.70;55.10
50548;DHT22;38013;48.810;8.818;2022-10-16T14:07:58;27.60;55.60
50548;DHT22;38013;48.810;8.818;2022-10-16T14:10:29;27.40;55.70
50548;DHT22;38013;48.810;8.818;2022-10-16T14:13:05;27.30;55.90
50548;DHT22;38013;48.810;8.818;2022-10-16T14:15:32;27.20;56.40
50548;DHT22;38013;48.810;8.818;2022-10-16T14:18:00;27.10;56.80
50548;DHT22;38013;48.810;8.818;2022-10-16T14:20:29;27.00;56.80
50548;DHT22;38013;48.810;8.818;2022-10-16T14:23:29;26.90;56.90
50548;DHT22;38013;48.810;8.818;2022-10-16T14:26:12;26.80;57.30
50548;DHT22;38013;48.810;8.818;2022-10-16T14:28:40;26.70;57.50
50548;DHT22;38013;48.810;8.818;2022-10-16T14:33:44;26.60;57.40
50548;DHT22;38013;48.810;8.818;2022-10-16T14:36:11;26.50;57.80
50548;DHT22;38013;48.810;8.818;2022-10-16T14:38:40;26.50;58.10
50548;DHT22;38013;48.810;8.818;2022-10-16T14:41:08;26.50;58.30
50548;DHT22;38013;48.810;8.818;2022-10-16T14:43:39;26.50;58.60
50548;DHT22;38013;48.810;8.818;2022-10-16T14:46:13;26.60;58.90
50548;DHT22;38013;48.810;8.818;2022-10-16T14:48:47;26.70;58.30
50548;DHT22;38013;48.810;8.818;2022-10-16T14:51:16;26.80;58.10
50548;DHT22;38013;48.810;8.818;2022-10-16T14:53:43;27.00;58.90
50548;DHT22;38013;48.810;8.818;2022-10-16T14:56:16;27.30;58.50
50548;DHT22;38013;48.810;8.818;2022-10-16T14:58:44;27.60;57.30
50548;DHT22;38013;48.810;8.818;2022-10-16T15:01:10;27.90;57.70
50548;DHT22;38013;48.810;8.818;2022-10-16T15:03:40;28.10;56.70
50548;DHT22;38013;48.810;8.818;2022-10-16T15:06:11;28.30;56.20
50548;DHT22;38013;48.810;8.818;2022-10-16T15:08:37;28.40;55.20
50548;DHT22;38013;48.810;8.818;2022-10-16T15:11:04;28.40;55.30
50548;DHT22;38013;48.810;8.818;2022-10-16T15:13:30;28.50;55.50
50548;DHT22;38013;48.810;8.818;2022-10-16T15:15:56;28.70;55.60
50548;DHT22;38013;48.810;8.818;2022-10-16T15:18:21;28.80;55.60
50548;DHT22;38013;48.810;8.818;2022-10-16T15:20:50;28.90;55.50
50548;DHT22;38013;48.810;8.818;2022-10-16T15:23:20;29.20;54.30
50548;DHT22;38013;48.810;8.818;2022-10-16T15:25:52;29.30;53.90
50548;DHT22;38013;48.810;8.818;2022-10-16T15:28:20;29.40;53.30
50548;DHT22;38013;48.810;8.818;2022-10-16T15:30:48;29.40;53.10
50548;DHT22;38013;48.810;8.818;2022-10-16T15:33:17;29.30;53.10
50548;DHT22;38013;48.810;8.818;2022-10-16T15:35:49;29.30;53.10
50548;DHT22;38013;48.810;8.818;2022-10-16T15:38:18;29.30;52.70
50548;DHT22;38013;48.810;8.818;2022-10-16T15:40:46;29.30;52.70
50548;DHT22;38013;48.810;8.818;2022-10-16T15:43:12;29.30;52.70
50548;DHT22;38013;48.810;8.818;2022-10-16T15:45:38;29.30;53.00
50548;DHT22;38013;48.810;8.818;2022-10-16T15:48:04;29.30;52.70
50548;DHT22;38013;48.810;8.818;2022-10-16T15:50:31;29.20;52.60
50548;DHT22;38013;48.810;8.818;2022-10-16T15:52:57;29.20;52.90
50548;DHT22;38013;48.810;8.818;2022-10-16T15:55:23;29.30;53.20
50548;DHT22;38013;48.810;8.818;2022-10-16T15:57:49;29.30;53.00
50548;DHT22;38013;48.810;8.818;2022-10-16T16:00:18;29.40;52.80
50548;DHT22;38013;48.810;8.818;2022-10-16T16:02:52;29.40;52.40
50548;DHT22;38013;48.810;8.818;2022-10-16T16:05:20;29.30;52.40
50548;DHT22;38013;48.810;8.818;2022-10-16T16:07:47;29.30;52.60
50548;DHT22;38013;48.810;8.818;2022-10-16T16:10:14;29.20;52.70
50548;DHT22;38013;48.810;8.818;2022-10-16T16:12:40;29.10;52.50
50548;DHT22;38013;48.810;8.818;2022-10-16T16:15:06;28.90;52.10
50548;DHT22;38013;48.810;8.818;2022-10-16T16:17:34;28.80;52.00
50548;DHT22;38013;48.810;8.818;2022-10-16T16:20:00;28.50;52.10
50548;DHT22;38013;48.810;8.818;2022-10-16T16:22:27;28.30;52.40
50548;DHT22;38013;48.810;8.818;2022-10-16T16:24:52;28.10;52.60
50548;DHT22;38013;48.810;8.818;2022-10-16T16:27:18;27.80;52.70
50548;DHT22;38013;48.810;8.818;2022-10-16T16:29:46;27.50;53.00
50548;DHT22;38013;48.810;8.818;2022-10-16T16:32:12;27.20;53.30
50548;DHT22;38013;48.810;8.818;2022-10-16T16:34:38;26.90;53.70
50548;DHT22;38013;48.810;8.818;2022-10-16T16:37:04;26.60;53.90
50548;DHT22;38013;48.810;8.818;2022-10-16T16:39:29;26.40;54.50
50548;DHT22;38013;48.810;8.818;2022-10-16T16:41:56;26.10;55.00
50548;DHT22;38013;48.810;8.818;2022-10-16T16:44:24;25.90;55.50
50548;DHT22;38013;48.810;8.818;2022-10-16T16:46:50;25.60;56.00
50548;DHT22;38013;48.810;8.818;2022-10-16T16:49:16;25.40;56.70
50548;DHT22;38013;48.810;8.818;2022-10-16T16:51:42;25.20;57.40
50548;DHT22;38013;48.810;8.818;2022-10-16T16:54:09;24.90;57.70
50548;DHT22;38013;48.810;8.818;2022-10-16T16:56:36;24.70;58.40
50548;DHT22;38013;48.810;8.818;2022-10-16T16:59:02;24.50;58.70
50548;DHT22;38013;48.810;8.818;2022-10-16T17:01:28;24.30;59.20
50548;DHT22;38013;48.810;8.818;2022-10-16T17:03:56;24.10;59.70
50548;DHT22;38013;48.810;8.818;2022-10-16T17:06:25;23.90;60.00
50548;DHT22;38013;48.810;8.818;2022-10-16T17:08:52;23.70;60.30
50548;DHT22;38013;48.810;8.818;2022-10-16T17:11:21;23.60;60.60
50548;DHT22;38013;48.810;8.818;2022-10-16T17:13:48;23.40;61.00
50548;DHT22;38013;48.810;8.818;2022-10-16T17:16:16;23.30;60.90
50548;DHT22;38013;48.810;8.818;2022-10-16T17:18:42;23.10;61.10
50548;DHT22;38013;48.810;8.818;2022-10-16T17:21:08;23.00;61.70
50548;DHT22;38013;48.810;8.818;2022-10-16T17:23:36;22.80;62.20
50548;DHT22;38013;48.810;8.818;2022-10-16T17:26:04;22.60;62.70